sensor_id;sensor_type;location;lat;lon;timestamp;pressure;altitude;pressure_sealevel;temperature;humidity
31062;BME280;17724;53.546;9.974;2023-09-30T00:00:32;102120.69;;;15.80;100.00
31062;BME280;17724;53.546;9.974;2023-09-30T00:04:33;102116.03;;;15.63;100.00
31062;BME280;17724;53.546;9.974;2023-09-30T00:08:34;102110.56;;;15.46;100.00
31062;BME280;17724;53.546;9.974;2023-09-30T00:12:34;102121.84;;;15.62;100.00
31062;BME280;17724;53.546;9.974;2023-09-30T00:16:35;102128.31;;;15.45;100.00
31062;BME280;17724;53.546;9.974;2023-09-30T00:20:35;102143.28;;;15.44;100.00
31062;BME280;17724;53.546;9.974;2023-09-30T00:24:36;102138.06;;;15.48;100.00
31062;BME280;17724;53.546;9.974;2023-09-30T00:28:36;102137.97;;;15.43;100.00
31062;BME280;17724;53.546;9.974;2023-09-30T00:32:37;102118.25;;;15.39;100.00
31062;BME280;17724;53.546;9.974;2023-09-30T00:36:37;102149.41;;;15.24;100.00
31062;BME280;17724;53.546;9.974;2023-09-30T00:40:38;102142.50;;;15.27;100.00
31062;BME280;17724;53.546;9.974;2023-09-30T00:44:38;102151.69;;;15.11;100.00
31062;BME280;17724;53.546;9.974;2023-09-30T00:48:39;102142.50;;;15.05;100.00
31062;BME280;17724;53.546;9.974;2023-09-30T00:52:40;102154.03;;;15.19;100.00
31062;BME280;17724;53.546;9.974;2023-09-30T00:56:44;102151.38;;;15.51;100.00
31062;BME280;17724;53.546;9.974;2023-09-30T01:00:48;102166.09;;;15.51;100.00
31062;BME280;17724;53.546;9.974;2023-09-30T01:04:49;102157.72;;;15.46;100.00
31062;BME280;17724;53.546;9.974;2023-09-30T01:08:50;102163.63;;;15.55;100.00
31062;BME280;17724;53.546;9.974;2023-09-30T01:12:50;102160.94;;;15.16;100.00
31062;BME280;17724;53.546;9.974;2023-09-30T01:16:51;102158.34;;;15.53;100.00
31062;BME280;17724;53.546;9.974;2023-09-30T01:20:52;102151.47;;;15.34;100.00
31062;BME280;17724;53.546;9.974;2023-09-30T01:24:54;102158.16;;;15.38;100.00
31062;BME280;17724;53.546;9.974;2023-09-30T01:28:54;102157.97;;;15.23;100.00
31062;BME280;17724;53.546;9.974;2023-09-30T01:32:55;102169.97;;;15.28;100.00
31062;BME280;17724;53.546;9.974;2023-09-30T01:36:57;102162.06;;;14.98;100.00
31062;BME280;17724;53.546;9.974;2023-09-30T01:40:57;102158.19;;;14.99;100.00
31062;BME280;17724;53.546;9.974;2023-09-30T01:44:58;102172.56;;;14.79;100.00
31062;BME280;17724;53.546;9.974;2023-09-30T01:48:58;102159.88;;;14.84;100.00
31062;BME280;17724;53.546;9.974;2023-09-30T01:52:59;102181.97;;;14.78;100.00
31062;BME280;17724;53.546;9.974;2023-09-30T01:56:59;102188.53;;;14.72;100.00
31062;BME280;17724;53.546;9.974;2023-09-30T02:01:03;102186.69;;;14.78;100.00
31062;BME280;17724;53.546;9.974;2023-09-30T02:05:04;102179.38;;;14.72;100.00
31062;BME280;17724;53.546;9.974;2023-09-30T02:09:08;102193.06;;;14.62;100.00
31062;BME280;17724;53.546;9.974;2023-09-30T02:13:09;102188.56;;;14.44;100.00
31062;BME280;17724;53.546;9.974;2023-09-30T02:17:12;102182.91;;;14.50;100.00
31062;BME280;17724;53.546;9.974;2023-09-30T02:21:13;102187.94;;;14.70;100.00
31062;BME280;17724;53.546;9.974;2023-09-30T02:25:14;102186.59;;;14.73;100.00
31062;BME280;17724;53.546;9.974;2023-09-30T02:29:14;102196.09;;;14.60;100.00
31062;BME280;17724;53.546;9.974;2023-09-30T02:33:14;102187.09;;;14.53;100.00
31062;BME280;17724;53.546;9.974;2023-09-30T02:37:15;102184.66;;;14.73;100.00
31062;BME280;17724;53.546;9.974;2023-09-30T02:41:16;102176.94;;;14.59;100.00
31062;BME280;17724;53.546;9.974;2023-09-30T02:45:17;102198.88;;;14.60;100.00
31062;BME280;17724;53.546;9.974;2023-09-30T02:49:19;102203.94;;;14.51;100.00
31062;BME280;17724;53.546;9.974;2023-09-30T02:53:19;102197.16;;;14.59;100.00
31062;BME280;17724;53.546;9.974;2023-09-30T02:57:20;102186.28;;;14.52;100.00
31062;BME280;17724;53.546;9.974;2023-09-30T03:01:21;102206.06;;;14.61;100.00
31062;BME280;17724;53.546;9.974;2023-09-30T03:05:22;102192.66;;;14.53;100.00
31062;BME280;17724;53.546;9.974;2023-09-30T03:09:23;102192.16;;;14.27;100.00
31062;BME280;17724;53.546;9.974;2023-09-30T03:13:24;102202.09;;;14.40;100.00
31062;BME280;17724;53.546;9.974;2023-09-30T03:17:25;102212.91;;;14.42;100.00
31062;BME280;17724;53.546;9.974;2023-09-30T03:21:26;102207.06;;;14.55;100.00
31062;BME280;17724;53.546;9.974;2023-09-30T03:25:26;102209.59;;;14.57;100.00
31062;BME280;17724;53.546;9.974;2023-09-30T03:29:27;102200.31;;;14.34;100.00
31062;BME280;17724;53.546;9.974;2023-09-30T03:33:27;102206.50;;;14.24;100.00
31062;BME280;17724;53.546;9.974;2023-09-30T03:37:28;102203.06;;;14.17;100.00
31062;BME280;17724;53.546;9.974;2023-09-30T03:41:29;102210.88;;;14.20;100.00
31062;BME280;17724;53.546;9.974;2023-09-30T03:45:29;102210.94;;;14.25;100.00
31062;BME280;17724;53.546;9.974;2023-09-30T03:49:30;102204.47;;;14.20;100.00
31062;BME280;17724;53.546;9.974;2023-09-30T03:53:30;102207.63;;;14.12;100.00
31062;BME280;17724;53.546;9.974;2023-09-30T03:57:31;102208.25;;;14.30;100.00
31062;BME280;17724;53.546;9.974;2023-09-30T04:01:32;102213.84;;;14.19;100.00
31062;BME280;17724;53.546;9.974;2023-09-30T04:05:32;102212.59;;;14.10;100.00
31062;BME280;17724;53.546;9.974;2023-09-30T04:09:36;102210.09;;;14.25;100.00
31062;BME280;17724;53.546;9.974;2023-09-30T04:13:37;102213.44;;;14.27;100.00
31062;BME280;17724;53.546;9.974;2023-09-30T04:17:38;102213.06;;;14.07;100.00
31062;BME280;17724;53.546;9.974;2023-09-30T04:21:39;102217.97;;;14.16;100.00
31062;BME280;17724;53.546;9.974;2023-09-30T04:25:39;102214.44;;;13.92;100.00
31062;BME280;17724;53.546;9.974;2023-09-30T04:29:43;102215.06;;;13.94;100.00
31062;BME280;17724;53.546;9.974;2023-09-30T04:33:44;102233.75;;;14.04;100.00
31062;BME280;17724;53.546;9.974;2023-09-30T04:37:44;102240.59;;;13.85;100.00
31062;BME280;17724;53.546;9.974;2023-09-30T04:41:45;102238.84;;;13.95;100.00
31062;BME280;17724;53.546;9.974;2023-09-30T04:45:47;102226.06;;;14.06;100.00
31062;BME280;17724;53.546;9.974;2023-09-30T04:49:49;102251.34;;;14.26;100.00
31062;BME280;17724;53.546;9.974;2023-09-30T04:53:51;102245.56;;;14.28;100.00
31062;BME280;17724;53.546;9.974;2023-09-30T04:57:52;102238.84;;;14.24;100.00
31062;BME280;17724;53.546;9.974;2023-09-30T05:01:52;102232.69;;;14.34;100.00
31062;BME280;17724;53.546;9.974;2023-09-30T05:05:53;102240.38;;;14.32;100.00
31062;BME280;17724;53.546;9.974;2023-09-30T05:09:55;102245.81;;;14.26;100.00
31062;BME280;17724;53.546;9.974;2023-09-30T05:13:56;102245.78;;;14.10;100.00
31062;BME280;17724;53.546;9.974;2023-09-30T05:17:56;102253.28;;;14.26;100.00
31062;BME280;17724;53.546;9.974;2023-09-30T05:21:57;102246.44;;;14.28;100.00
31062;BME280;17724;53.546;9.974;2023-09-30T05:25:58;102255.81;;;13.99;100.00
31062;BME280;17724;53.546;9.974;2023-09-30T05:29:58;102243.16;;;14.03;100.00
31062;BME280;17724;53.546;9.974;2023-09-30T05:34:00;102258.09;;;14.02;100.00
31062;BME280;17724;53.546;9.974;2023-09-30T05:38:03;102268.72;;;14.22;100.00
31062;BME280;17724;53.546;9.974;2023-09-30T05:42:06;102269.41;;;14.00;100.00
31062;BME280;17724;53.546;9.974;2023-09-30T05:46:07;102276.28;;;14.26;100.00
31062;BME280;17724;53.546;9.974;2023-09-30T05:50:08;102276.56;;;14.42;100.00
31062;BME280;17724;53.546;9.974;2023-09-30T05:54:16;102273.31;;;14.16;100.00
31062;BME280;17724;53.546;9.974;2023-09-30T05:58:17;102274.78;;;14.07;100.00
31062;BME280;17724;53.546;9.974;2023-09-30T06:02:17;102273.41;;;14.21;100.00
31062;BME280;17724;53.546;9.974;2023-09-30T06:06:18;102291.91;;;14.33;100.00
31062;BME280;17724;53.546;9.974;2023-09-30T06:10:19;102287.34;;;14.26;100.00
31062;BME280;17724;53.546;9.974;2023-09-30T06:14:20;102311.50;;;14.31;100.00
31062;BME280;17724;53.546;9.974;2023-09-30T06:18:20;102307.50;;;14.39;100.00
31062;BME280;17724;53.546;9.974;2023-09-30T06:22:20;102319.81;;;14.31;100.00
31062;BME280;17724;53.546;9.974;2023-09-30T06:26:21;102316.63;;;14.51;100.00
31062;BME280;17724;53.546;9.974;2023-09-30T06:30:22;102316.28;;;14.36;100.00
31062;BME280;17724;53.546;9.974;2023-09-30T06:34:29;102329.56;;;14.62;100.00
31062;BME280;17724;53.546;9.974;2023-09-30T06:38:30;102349.78;;;14.63;100.00
31062;BME280;17724;53.546;9.974;2023-09-30T06:42:31;102336.91;;;14.68;100.00
31062;BME280;17724;53.546;9.974;2023-09-30T06:46:31;102338.94;;;14.73;100.00
31062;BME280;17724;53.546;9.974;2023-09-30T06:50:32;102342.00;;;14.48;100.00
31062;BME280;17724;53.546;9.974;2023-09-30T06:54:33;102347.53;;;14.48;100.00
31062;BME280;17724;53.546;9.974;2023-09-30T06:58:33;102352.59;;;14.51;100.00
31062;BME280;17724;53.546;9.974;2023-09-30T07:02:34;102345.94;;;14.64;100.00
31062;BME280;17724;53.546;9.974;2023-09-30T07:06:36;102353.16;;;14.65;100.00
31062;BME280;17724;53.546;9.974;2023-09-30T07:10:37;102360.97;;;14.96;100.00
31062;BME280;17724;53.546;9.974;2023-09-30T07:14:37;102353.63;;;14.90;100.00
31062;BME280;17724;53.546;9.974;2023-09-30T07:18:38;102373.22;;;15.00;100.00
31062;BME280;17724;53.546;9.974;2023-09-30T07:22:38;102371.56;;;14.88;100.00
31062;BME280;17724;53.546;9.974;2023-09-30T07:26:39;102378.09;;;15.10;100.00
31062;BME280;17724;53.546;9.974;2023-09-30T07:30:39;102391.78;;;15.34;100.00
31062;BME280;17724;53.546;9.974;2023-09-30T07:34:40;102396.09;;;15.24;100.00
31062;BME280;17724;53.546;9.974;2023-09-30T07:38:41;102392.91;;;14.87;100.00
31062;BME280;17724;53.546;9.974;2023-09-30T07:42:41;102388.81;;;15.07;100.00
31062;BME280;17724;53.546;9.974;2023-09-30T07:46:42;102383.38;;;15.12;100.00
31062;BME280;17724;53.546;9.974;2023-09-30T07:50:43;102388.00;;;15.40;100.00
31062;BME280;17724;53.546;9.974;2023-09-30T07:54:44;102387.50;;;15.43;100.00
31062;BME280;17724;53.546;9.974;2023-09-30T07:58:44;102398.00;;;15.58;100.00
31062;BME280;17724;53.546;9.974;2023-09-30T08:02:45;102405.31;;;15.64;100.00
31062;BME280;17724;53.546;9.974;2023-09-30T08:06:45;102400.72;;;15.69;100.00
31062;BME280;17724;53.546;9.974;2023-09-30T08:10:46;102401.81;;;16.07;100.00
31062;BME280;17724;53.546;9.974;2023-09-30T08:14:47;102414.22;;;16.43;99.25
31062;BME280;17724;53.546;9.974;2023-09-30T08:18:47;102421.72;;;16.43;98.51
31062;BME280;17724;53.546;9.974;2023-09-30T08:22:47;102424.13;;;16.34;97.41
31062;BME280;17724;53.546;9.974;2023-09-30T08:26:48;102422.63;;;16.70;97.17
31062;BME280;17724;53.546;9.974;2023-09-30T08:30:49;102425.50;;;17.03;95.68
31062;BME280;17724;53.546;9.974;2023-09-30T08:34:51;102433.47;;;17.21;94.02
31062;BME280;17724;53.546;9.974;2023-09-30T08:38:51;102428.25;;;17.62;92.64
31062;BME280;17724;53.546;9.974;2023-09-30T08:42:52;102435.09;;;17.76;91.36
31062;BME280;17724;53.546;9.974;2023-09-30T08:46:54;102432.81;;;17.41;91.04
31062;BME280;17724;53.546;9.974;2023-09-30T08:50:56;102434.41;;;17.32;91.67
31062;BME280;17724;53.546;9.974;2023-09-30T08:54:58;102441.38;;;17.34;90.77
31062;BME280;17724;53.546;9.974;2023-09-30T08:59:00;102444.34;;;17.55;90.32
31062;BME280;17724;53.546;9.974;2023-09-30T09:03:00;102447.19;;;17.60;90.14
31062;BME280;17724;53.546;9.974;2023-09-30T09:07:01;102448.56;;;17.62;89.34
31062;BME280;17724;53.546;9.974;2023-09-30T09:11:02;102457.75;;;17.63;89.60
31062;BME280;17724;53.546;9.974;2023-09-30T09:15:07;102452.03;;;17.75;89.32
31062;BME280;17724;53.546;9.974;2023-09-30T09:19:14;102458.50;;;17.80;89.59
31062;BME280;17724;53.546;9.974;2023-09-30T09:23:17;102454.00;;;18.11;87.98
31062;BME280;17724;53.546;9.974;2023-09-30T09:27:18;102461.03;;;18.29;86.94
31062;BME280;17724;53.546;9.974;2023-09-30T09:35:22;102454.34;;;18.25;86.81
31062;BME280;17724;53.546;9.974;2023-09-30T09:39:29;102457.13;;;18.30;86.41
31062;BME280;17724;53.546;9.974;2023-09-30T09:43:33;102461.63;;;18.36;86.19
31062;BME280;17724;53.546;9.974;2023-09-30T09:47:35;102460.31;;;18.49;86.42
31062;BME280;17724;53.546;9.974;2023-09-30T09:51:36;102462.78;;;18.45;86.08
31062;BME280;17724;53.546;9.974;2023-09-30T09:55:38;102462.09;;;18.23;85.17
31062;BME280;17724;53.546;9.974;2023-09-30T09:59:42;102452.53;;;18.04;84.99
31062;BME280;17724;53.546;9.974;2023-09-30T10:03:43;102456.38;;;18.45;85.19
31062;BME280;17724;53.546;9.974;2023-09-30T10:07:56;102457.50;;;18.44;84.42
31062;BME280;17724;53.546;9.974;2023-09-30T10:11:59;102459.25;;;18.60;82.81
31062;BME280;17724;53.546;9.974;2023-09-30T10:16:00;102460.72;;;18.73;81.98
31062;BME280;17724;53.546;9.974;2023-09-30T10:20:06;102461.00;;;18.77;81.40
31062;BME280;17724;53.546;9.974;2023-09-30T10:28:36;102463.59;;;19.04;81.44
31062;BME280;17724;53.546;9.974;2023-09-30T10:37:19;102480.34;;;19.09;81.40
31062;BME280;17724;53.546;9.974;2023-09-30T10:45:47;102482.63;;;19.27;80.60
31062;BME280;17724;53.546;9.974;2023-09-30T10:49:49;102480.16;;;19.51;79.13
31062;BME280;17724;53.546;9.974;2023-09-30T10:53:54;102478.72;;;19.49;77.96
31062;BME280;17724;53.546;9.974;2023-09-30T10:58:00;102485.47;;;19.63;77.84
31062;BME280;17724;53.546;9.974;2023-09-30T11:02:00;102478.44;;;19.40;77.29
31062;BME280;17724;53.546;9.974;2023-09-30T11:06:02;102484.25;;;19.08;77.65
31062;BME280;17724;53.546;9.974;2023-09-30T11:10:04;102487.34;;;19.27;75.83
31062;BME280;17724;53.546;9.974;2023-09-30T11:14:31;102485.97;;;19.19;75.19
31062;BME280;17724;53.546;9.974;2023-09-30T11:18:32;102485.13;;;19.34;73.35
31062;BME280;17724;53.546;9.974;2023-09-30T11:22:32;102473.09;;;19.13;75.05
31062;BME280;17724;53.546;9.974;2023-09-30T11:26:35;102469.38;;;18.87;74.66
31062;BME280;17724;53.546;9.974;2023-09-30T11:30:53;102455.44;;;18.87;73.94
31062;BME280;17724;53.546;9.974;2023-09-30T11:34:54;102476.72;;;19.13;73.08
31062;BME280;17724;53.546;9.974;2023-09-30T11:38:54;102471.69;;;19.00;71.83
31062;BME280;17724;53.546;9.974;2023-09-30T11:43:08;102464.19;;;19.26;72.00
31062;BME280;17724;53.546;9.974;2023-09-30T11:47:09;102468.13;;;19.56;71.54
31062;BME280;17724;53.546;9.974;2023-09-30T11:51:12;102473.88;;;18.93;67.62
31062;BME280;17724;53.546;9.974;2023-09-30T11:55:13;102475.31;;;19.11;70.14
31062;BME280;17724;53.546;9.974;2023-09-30T11:59:13;102482.63;;;19.27;69.10
31062;BME280;17724;53.546;9.974;2023-09-30T12:03:14;102466.69;;;19.12;69.04
31062;BME280;17724;53.546;9.974;2023-09-30T12:07:17;102465.03;;;19.22;69.39
31062;BME280;17724;53.546;9.974;2023-09-30T12:11:18;102462.81;;;19.49;67.91
31062;BME280;17724;53.546;9.974;2023-09-30T12:15:19;102450.00;;;19.53;67.31
31062;BME280;17724;53.546;9.974;2023-09-30T12:19:22;102448.31;;;19.37;68.81
31062;BME280;17724;53.546;9.974;2023-09-30T12:23:22;102446.94;;;19.70;70.23
31062;BME280;17724;53.546;9.974;2023-09-30T12:27:24;102445.00;;;19.76;68.74
31062;BME280;17724;53.546;9.974;2023-09-30T12:31:25;102461.75;;;19.65;66.83
31062;BME280;17724;53.546;9.974;2023-09-30T12:35:25;102463.69;;;19.65;66.36
31062;BME280;17724;53.546;9.974;2023-09-30T12:39:26;102456.44;;;19.69;67.27
31062;BME280;17724;53.546;9.974;2023-09-30T12:43:30;102456.72;;;19.83;64.98
31062;BME280;17724;53.546;9.974;2023-09-30T12:47:31;102457.81;;;19.51;61.25
31062;BME280;17724;53.546;9.974;2023-09-30T12:51:32;102456.13;;;19.50;59.50
31062;BME280;17724;53.546;9.974;2023-09-30T12:55:33;102437.13;;;19.16;62.24
31062;BME280;17724;53.546;9.974;2023-09-30T12:59:33;102450.53;;;19.45;62.88
31062;BME280;17724;53.546;9.974;2023-09-30T13:03:34;102448.28;;;19.22;63.89
31062;BME280;17724;53.546;9.974;2023-09-30T13:07:35;102434.88;;;19.13;65.46
31062;BME280;17724;53.546;9.974;2023-09-30T13:11:36;102432.94;;;19.09;64.84
31062;BME280;17724;53.546;9.974;2023-09-30T13:15:36;102433.22;;;19.38;67.39
31062;BME280;17724;53.546;9.974;2023-09-30T13:19:37;102424.59;;;19.50;65.76
31062;BME280;17724;53.546;9.974;2023-09-30T13:23:38;102429.06;;;19.45;66.84
31062;BME280;17724;53.546;9.974;2023-09-30T13:27:39;102428.22;;;19.25;66.61
31062;BME280;17724;53.546;9.974;2023-09-30T13:31:40;102421.78;;;19.34;65.67
31062;BME280;17724;53.546;9.974;2023-09-30T13:35:40;102420.94;;;19.54;67.34
31062;BME280;17724;53.546;9.974;2023-09-30T13:39:41;102414.84;;;19.52;65.49
31062;BME280;17724;53.546;9.974;2023-09-30T13:43:41;102420.97;;;19.75;64.30
31062;BME280;17724;53.546;9.974;2023-09-30T13:47:43;102420.09;;;20.00;62.35
31062;BME280;17724;53.546;9.974;2023-09-30T13:51:43;102422.38;;;19.52;62.27
31062;BME280;17724;53.546;9.974;2023-09-30T13:55:44;102419.03;;;19.39;63.59
31062;BME280;17724;53.546;9.974;2023-09-30T13:59:45;102431.31;;;19.64;63.36
31062;BME280;17724;53.546;9.974;2023-09-30T14:03:46;102420.41;;;19.57;65.78
31062;BME280;17724;53.546;9.974;2023-09-30T14:07:51;102425.44;;;19.65;62.93
31062;BME280;17724;53.546;9.974;2023-09-30T14:11:52;102446.97;;;19.75;61.97
31062;BME280;17724;53.546;9.974;2023-09-30T14:15:52;102425.16;;;19.57;63.58
31062;BME280;17724;53.546;9.974;2023-09-30T14:19:53;102441.06;;;19.82;62.24
31062;BME280;17724;53.546;9.974;2023-09-30T14:23:54;102424.31;;;19.36;63.80
31062;BME280;17724;53.546;9.974;2023-09-30T14:27:54;102415.94;;;19.41;63.78
31062;BME280;17724;53.546;9.974;2023-09-30T14:31:56;102414.84;;;19.52;64.37
31062;BME280;17724;53.546;9.974;2023-09-30T14:35:58;102417.31;;;19.59;63.91
31062;BME280;17724;53.546;9.974;2023-09-30T14:39:58;102420.97;;;19.75;65.50
31062;BME280;17724;53.546;9.974;2023-09-30T14:43:59;102415.38;;;19.34;64.91
31062;BME280;17724;53.546;9.974;2023-09-30T14:47:59;102410.34;;;19.46;64.89
31062;BME280;17724;53.546;9.974;2023-09-30T14:52:00;102403.66;;;19.52;64.72
31062;BME280;17724;53.546;9.974;2023-09-30T14:56:01;102403.66;;;19.52;64.89
31062;BME280;17724;53.546;9.974;2023-09-30T15:00:01;102398.66;;;19.59;66.80
31062;BME280;17724;53.546;9.974;2023-09-30T15:04:02;102390.84;;;19.72;66.56
31062;BME280;17724;53.546;9.974;2023-09-30T15:08:03;102402.25;;;19.50;67.69
31062;BME280;17724;53.546;9.974;2023-09-30T15:12:04;102410.66;;;19.70;66.26
31062;BME280;17724;53.546;9.974;2023-09-30T15:16:05;102407.84;;;19.70;68.21
31062;BME280;17724;53.546;9.974;2023-09-30T15:20:06;102411.22;;;19.77;67.45
31062;BME280;17724;53.546;9.974;2023-09-30T15:24:07;102416.50;;;19.84;66.94
31062;BME280;17724;53.546;9.974;2023-09-30T15:28:09;102408.41;;;19.57;66.16
31062;BME280;17724;53.546;9.974;2023-09-30T15:32:10;102390.28;;;19.49;67.95
31062;BME280;17724;53.546;9.974;2023-09-30T15:36:15;102395.56;;;19.81;68.12
31062;BME280;17724;53.546;9.974;2023-09-30T15:40:19;102390.84;;;19.72;68.09
31062;BME280;17724;53.546;9.974;2023-09-30T15:44:19;102401.69;;;19.78;67.94
31062;BME280;17724;53.546;9.974;2023-09-30T15:48:20;102400.59;;;19.69;68.02
31062;BME280;17724;53.546;9.974;2023-09-30T15:52:20;102392.50;;;19.57;68.76
31062;BME280;17724;53.546;9.974;2023-09-30T15:56:21;102392.25;;;19.64;71.31
31062;BME280;17724;53.546;9.974;2023-09-30T16:00:22;102386.94;;;19.62;71.35
31062;BME280;17724;53.546;9.974;2023-09-30T16:04:22;102395.31;;;19.67;71.35
31062;BME280;17724;53.546;9.974;2023-09-30T16:08:23;102384.69;;;19.54;72.83
31062;BME280;17724;53.546;9.974;2023-09-30T16:12:23;102393.88;;;19.55;71.34
31062;BME280;17724;53.546;9.974;2023-09-30T16:16:24;102400.31;;;19.45;70.69
31062;BME280;17724;53.546;9.974;2023-09-30T16:20:24;102401.41;;;19.54;72.67
31062;BME280;17724;53.546;9.974;2023-09-30T16:24:25;102385.81;;;19.33;70.10
31062;BME280;17724;53.546;9.974;2023-09-30T16:28:26;102390.84;;;19.36;70.29
31062;BME280;17724;53.546;9.974;2023-09-30T16:32:27;102403.94;;;19.56;70.51
31062;BME280;17724;53.546;9.974;2023-09-30T16:36:31;102389.72;;;19.37;69.02
31062;BME280;17724;53.546;9.974;2023-09-30T16:40:32;102384.97;;;19.48;71.81
31062;BME280;17724;53.546;9.974;2023-09-30T16:44:32;102399.47;;;19.50;71.45
31062;BME280;17724;53.546;9.974;2023-09-30T16:48:33;102400.88;;;19.52;69.06
31062;BME280;17724;53.546;9.974;2023-09-30T16:52:34;102412.06;;;19.67;68.43
31062;BME280;17724;53.546;9.974;2023-09-30T16:56:35;102396.69;;;19.29;68.37
31062;BME280;17724;53.546;9.974;2023-09-30T17:00:35;102392.50;;;19.22;69.64
31062;BME280;17724;53.546;9.974;2023-09-30T17:04:41;102398.09;;;19.32;70.52
31062;BME280;17724;53.546;9.974;2023-09-30T17:08:41;102392.50;;;19.27;70.59
31062;BME280;17724;53.546;9.974;2023-09-30T17:12:42;102389.69;;;19.27;70.27
31062;BME280;17724;53.546;9.974;2023-09-30T17:16:44;102389.44;;;19.43;71.87
31062;BME280;17724;53.546;9.974;2023-09-30T17:20:45;102393.63;;;19.41;71.25
31062;BME280;17724;53.546;9.974;2023-09-30T17:24:46;102394.19;;;19.33;72.96
31062;BME280;17724;53.546;9.974;2023-09-30T17:28:47;102395.00;;;19.38;73.25
31062;BME280;17724;53.546;9.974;2023-09-30T17:32:49;102403.66;;;19.42;75.65
31062;BME280;17724;53.546;9.974;2023-09-30T17:36:50;102396.41;;;19.36;73.56
31062;BME280;17724;53.546;9.974;2023-09-30T17:40:50;102398.09;;;19.22;76.32
31062;BME280;17724;53.546;9.974;2023-09-30T17:44:51;102395.59;;;19.35;74.78
31062;BME280;17724;53.546;9.974;2023-09-30T17:48:51;102403.09;;;19.35;74.54
31062;BME280;17724;53.546;9.974;2023-09-30T17:52:52;102410.34;;;19.31;75.16
31062;BME280;17724;53.546;9.974;2023-09-30T17:56:53;102396.97;;;19.33;75.62
31062;BME280;17724;53.546;9.974;2023-09-30T18:00:54;102401.44;;;19.24;74.65
31062;BME280;17724;53.546;9.974;2023-09-30T18:04:56;102413.44;;;19.29;73.80
31062;BME280;17724;53.546;9.974;2023-09-30T18:08:56;102414.56;;;19.23;73.51
31062;BME280;17724;53.546;9.974;2023-09-30T18:12:57;102411.44;;;19.14;75.02
31062;BME280;17724;53.546;9.974;2023-09-30T18:16:58;102400.88;;;19.32;75.05
31062;BME280;17724;53.546;9.974;2023-09-30T18:20:59;102409.53;;;19.20;74.77
31062;BME280;17724;53.546;9.974;2023-09-30T18:24:59;102407.31;;;19.27;74.27
31062;BME280;17724;53.546;9.974;2023-09-30T18:29:00;102410.66;;;19.24;73.48
31062;BME280;17724;53.546;9.974;2023-09-30T18:33:04;102394.44;;;19.11;73.39
31062;BME280;17724;53.546;9.974;2023-09-30T18:37:05;102400.31;;;19.09;73.94
31062;BME280;17724;53.546;9.974;2023-09-30T18:41:15;102405.34;;;19.12;73.84
31062;BME280;17724;53.546;9.974;2023-09-30T18:45:16;102398.59;;;18.98;73.28
31062;BME280;17724;53.546;9.974;2023-09-30T18:49:17;102405.59;;;19.11;73.03
31062;BME280;17724;53.546;9.974;2023-09-30T18:53:19;102406.44;;;19.11;72.00
31062;BME280;17724;53.546;9.974;2023-09-30T18:57:19;102405.59;;;19.01;72.93
31062;BME280;17724;53.546;9.974;2023-09-30T19:01:20;102401.09;;;18.94;72.57
31062;BME280;17724;53.546;9.974;2023-09-30T19:05:21;102409.47;;;18.79;71.93
31062;BME280;17724;53.546;9.974;2023-09-30T19:09:21;102395.19;;;18.70;73.78
31062;BME280;17724;53.546;9.974;2023-09-30T19:13:22;102400.81;;;18.81;73.77
31062;BME280;17724;53.546;9.974;2023-09-30T19:17:22;102403.91;;;18.89;74.82
31062;BME280;17724;53.546;9.974;2023-09-30T19:21:23;102400.28;;;18.84;77.18
31062;BME280;17724;53.546;9.974;2023-09-30T19:25:23;102403.59;;;18.81;76.06
31062;BME280;17724;53.546;9.974;2023-09-30T19:29:24;102402.47;;;18.82;77.45
31062;BME280;17724;53.546;9.974;2023-09-30T19:33:24;102397.75;;;18.82;75.75
31062;BME280;17724;53.546;9.974;2023-09-30T19:37:25;102408.63;;;18.89;76.85
31062;BME280;17724;53.546;9.974;2023-09-30T19:41:25;102398.03;;;18.81;76.63
31062;BME280;17724;53.546;9.974;2023-09-30T19:45:26;102395.19;;;18.70;76.08
31062;BME280;17724;53.546;9.974;2023-09-30T19:49:30;102399.97;;;18.75;76.46
31062;BME280;17724;53.546;9.974;2023-09-30T19:53:30;102391.84;;;18.68;76.55
31062;BME280;17724;53.546;9.974;2023-09-30T19:57:31;102402.75;;;18.75;75.78
31062;BME280;17724;53.546;9.974;2023-09-30T20:01:32;102406.38;;;18.76;76.52
31062;BME280;17724;53.546;9.974;2023-09-30T20:05:32;102406.88;;;18.67;76.36
31062;BME280;17724;53.546;9.974;2023-09-30T20:09:33;102420.25;;;18.65;75.43
31062;BME280;17724;53.546;9.974;2023-09-30T20:13:35;102412.72;;;18.66;75.41
31062;BME280;17724;53.546;9.974;2023-09-30T20:17:36;102411.88;;;18.55;77.07
31062;BME280;17724;53.546;9.974;2023-09-30T20:21:37;102410.75;;;18.61;78.55
31062;BME280;17724;53.546;9.974;2023-09-30T20:25:38;102392.91;;;18.57;78.90
31062;BME280;17724;53.546;9.974;2023-09-30T20:29:38;102396.56;;;18.68;77.29
31062;BME280;17724;53.546;9.974;2023-09-30T20:33:39;102395.16;;;18.65;76.89
31062;BME280;17724;53.546;9.974;2023-09-30T20:37:40;102393.16;;;18.51;77.49
31062;BME280;17724;53.546;9.974;2023-09-30T20:41:40;102385.38;;;18.48;78.24
31062;BME280;17724;53.546;9.974;2023-09-30T20:45:41;102386.16;;;18.43;78.12
31062;BME280;17724;53.546;9.974;2023-09-30T20:49:41;102384.47;;;18.37;79.05
31062;BME280;17724;53.546;9.974;2023-09-30T20:53:42;102383.34;;;18.28;79.68
31062;BME280;17724;53.546;9.974;2023-09-30T20:57:43;102377.16;;;18.20;80.33
31062;BME280;17724;53.546;9.974;2023-09-30T21:01:43;102379.97;;;18.31;79.46
31062;BME280;17724;53.546;9.974;2023-09-30T21:05:46;102376.63;;;18.24;79.71
31062;BME280;17724;53.546;9.974;2023-09-30T21:09:46;102379.13;;;18.20;80.41